BrazilFixed distance
Ultra Transmantiqueira - UTM
15 Oct2023
Distance
100km
Finishers
5542 men13 women
Winning time
11:11:36h
Median pace
6.09km/h
Pace distribution
55 finishers · 4.33–8.93 km/h · mean 6.28
Every finisher ran the same 100 km course, so these paces are directly comparable.
Histogram of finisher pace. 55 finishers ranged from 4.33 to 8.93 kilometres per hour, with a mean of 6.28 and a median of 6.09. The busiest band is 6.0 to 6.5 kilometres per hour, with 11 finishers.
Results
Ranks 1–50 of 55
| Rank | Runner | Time | Pace | Cat. | Placing |
|---|---|---|---|---|---|
| 1 | 11:11:36h | 8.93 | M45 | 1st M · 1st M45 | |
| 2 | 11:27:31h | 8.73 | M45 | 2nd M · 2nd M45 | |
| 3 | 11:36:04h | 8.62 | M35 | 3rd M · 1st M35 | |
| 4 | 12:04:39h | 8.28 | M40 | 4th M · 1st M40 | |
| 5 | 12:17:31h | 8.13 | M23 | 5th M · 1st M23 | |
| 6 | 12:18:31h | 8.12 | M50 | 6th M · 1st M50 | |
| 7 | 12:19:00h | 8.12 | W40 | 1st F · 1st W40 | |
| 8 | 12:27:39h | 8.03 | M40 | 7th M · 2nd M40 | |
| 9 | 12:27:42h | 8.03 | M40 | 8th M · 3rd M40 | |
| 10 | 12:28:58h | 8.01 | M45 | 9th M · 3rd M45 | |
| 11 | 12:44:04h | 7.85 | M55 | 10th M · 1st M55 | |
| 12 | 13:06:26h | 7.63 | M40 | 11th M · 4th M40 | |
| 13 | 13:06:26h | 7.63 | M40 | 11th M · 4th M40 | |
| 14 | 13:06:29h | 7.63 | M50 | 13th M · 2nd M50 | |
| 15 | 13:39:31h | 7.32 | — | 14th M | |
| 16 | 13:47:49h | 7.25 | M45 | 15th M · 4th M45 | |
| 17 | 13:56:41h | 7.17 | W50 | 2nd F · 1st W50 | |
| 18 | 13:56:52h | 7.17 | M55 | 16th M · 2nd M55 | |
| 19 | 14:22:24h | 6.96 | M50 | 17th M · 3rd M50 | |
| 20 | 15:23:41h | 6.50 | W35 | 3rd F · 1st W35 | |
| 21 | 15:29:34h | 6.46 | M55 | 18th M · 3rd M55 | |
| 22 | 15:33:43h | 6.43 | M45 | 19th M · 5th M45 | |
| 23 | 15:45:00h | 6.35 | M23 | 20th M · 2nd M23 | |
| 24 | 15:51:38h | 6.30 | — | 4th F | |
| 25 | 15:58:55h | 6.26 | M55 | 21st M · 4th M55 | |
| 26 | 16:12:47h | 6.17 | — | 22nd M | |
| 27 | 16:20:34h | 6.12 | W45 | 5th F · 1st W45 | |
| 28 | 16:25:41h | 6.09 | M40 | 23rd M · 6th M40 | |
| 29 | 16:26:50h | 6.08 | M50 | 24th M · 4th M50 | |
| 30 | 16:39:41h | 6.00 | M45 | 25th M · 6th M45 | |
| 31 | 16:51:38h | 5.93 | W45 | 6th F · 2nd W45 | |
| 32 | 17:23:37h | 5.75 | M23 | 26th M · 3rd M23 | |
| 33 | 17:23:39h | 5.75 | M45 | 27th M · 7th M45 | |
| 34 | 17:23:39h | 5.75 | M35 | 27th M · 2nd M35 | |
| 35 | 17:23:58h | 5.75 | M60 | 29th M · 1st M60 | |
| 36 | 17:24:08h | 5.75 | M45 | 30th M · 8th M45 | |
| 37 | 17:41:46h | 5.65 | W35 | 7th F · 2nd W35 | |
| 38 | 17:52:19h | 5.59 | W35 | 8th F · 3rd W35 | |
| 39 | 17:52:21h | 5.59 | W45 | 9th F · 3rd W45 | |
| 40 | 18:07:26h | 5.52 | — | 31st M | |
| 41 | 18:20:25h | 5.45 | W50 | 10th F · 2nd W50 | |
| 42 | 18:20:25h | 5.45 | M55 | 32nd M · 5th M55 | |
| 43 | 19:47:53h | 5.05 | — | 33rd M | |
| 44 | 21:10:35h | 4.72 | M55 | 34th M · 6th M55 | |
| 45 | 21:38:14h | 4.62 | W40 | 11th F · 2nd W40 | |
| 46 | 21:38:21h | 4.62 | M65 | 35th M · 1st M65 | |
| 47 | 21:52:11h | 4.57 | W45 | 12th F · 4th W45 | |
| 48 | 21:52:12h | 4.57 | M40 | 36th M · 7th M40 | |
| 49 | 21:52:19h | 4.57 | M50 | 37th M · 5th M50 | |
| 50 | 22:10:18h | 4.51 | M45 | 38th M · 9th M45 |
- 11st M · 1st M45Time11:11:36hPace8.93Cat.M45
- 22nd M · 2nd M45Time11:27:31hPace8.73Cat.M45
- 33rd M · 1st M35Time11:36:04hPace8.62Cat.M35
- 44th M · 1st M40Time12:04:39hPace8.28Cat.M40
- 55th M · 1st M23Time12:17:31hPace8.13Cat.M23
- 66th M · 1st M50Time12:18:31hPace8.12Cat.M50
- 71st F · 1st W40Time12:19:00hPace8.12Cat.W40
- 87th M · 2nd M40Time12:27:39hPace8.03Cat.M40
- 98th M · 3rd M40Time12:27:42hPace8.03Cat.M40
- 109th M · 3rd M45Time12:28:58hPace8.01Cat.M45
- 1110th M · 1st M55Time12:44:04hPace7.85Cat.M55
- 1211th M · 4th M40Time13:06:26hPace7.63Cat.M40
- 1311th M · 4th M40Time13:06:26hPace7.63Cat.M40
- 1413th M · 2nd M50Time13:06:29hPace7.63Cat.M50
- 1514th MTime13:39:31hPace7.32
- 1615th M · 4th M45Time13:47:49hPace7.25Cat.M45
- 172nd F · 1st W50Time13:56:41hPace7.17Cat.W50
- 1816th M · 2nd M55Time13:56:52hPace7.17Cat.M55
- 1917th M · 3rd M50Time14:22:24hPace6.96Cat.M50
- 203rd F · 1st W35Time15:23:41hPace6.50Cat.W35
- 2118th M · 3rd M55Time15:29:34hPace6.46Cat.M55
- 2219th M · 5th M45Time15:33:43hPace6.43Cat.M45
- 2320th M · 2nd M23Time15:45:00hPace6.35Cat.M23
- 244th FTime15:51:38hPace6.30
- 2521st M · 4th M55Time15:58:55hPace6.26Cat.M55
- 2622nd MTime16:12:47hPace6.17
- 275th F · 1st W45Time16:20:34hPace6.12Cat.W45
- 2823rd M · 6th M40Time16:25:41hPace6.09Cat.M40
- 2924th M · 4th M50Time16:26:50hPace6.08Cat.M50
- 3025th M · 6th M45Time16:39:41hPace6.00Cat.M45
- 316th F · 2nd W45Time16:51:38hPace5.93Cat.W45
- 3226th M · 3rd M23Time17:23:37hPace5.75Cat.M23
- 3327th M · 7th M45Time17:23:39hPace5.75Cat.M45
- 3427th M · 2nd M35Time17:23:39hPace5.75Cat.M35
- 3529th M · 1st M60Time17:23:58hPace5.75Cat.M60
- 3630th M · 8th M45Time17:24:08hPace5.75Cat.M45
- 377th F · 2nd W35Time17:41:46hPace5.65Cat.W35
- 388th F · 3rd W35Time17:52:19hPace5.59Cat.W35
- 399th F · 3rd W45Time17:52:21hPace5.59Cat.W45
- 4031st MTime18:07:26hPace5.52
- 4110th F · 2nd W50Time18:20:25hPace5.45Cat.W50
- 4232nd M · 5th M55Time18:20:25hPace5.45Cat.M55
- 4333rd MTime19:47:53hPace5.05
- 4434th M · 6th M55Time21:10:35hPace4.72Cat.M55
- 4511th F · 2nd W40Time21:38:14hPace4.62Cat.W40
- 4635th M · 1st M65Time21:38:21hPace4.62Cat.M65
- 4712th F · 4th W45Time21:52:11hPace4.57Cat.W45
- 4836th M · 7th M40Time21:52:12hPace4.57Cat.M40
- 4937th M · 5th M50Time21:52:19hPace4.57Cat.M50
- 5038th M · 9th M45Time22:10:18hPace4.51Cat.M45
Showing ranks 1–50 of 55